createdAt,value
2022-11-19T00:01:26.389Z,2.06
2022-11-19T00:03:53.739Z,2.06
2022-11-19T00:06:23.324Z,1.93
2022-11-19T00:08:50.605Z,1.86
2022-11-19T00:11:54.967Z,1.69
2022-11-19T00:14:23.973Z,1.60
2022-11-19T00:16:50.707Z,1.68
2022-11-19T00:19:17.456Z,2.04
2022-11-19T00:21:45.207Z,2.14
2022-11-19T00:24:11.972Z,2.27
2022-11-19T00:26:38.545Z,2.19
2022-11-19T00:29:05.160Z,2.19
2022-11-19T00:31:31.856Z,1.99
2022-11-19T00:33:58.451Z,1.65
2022-11-19T00:36:25.076Z,1.40
2022-11-19T00:38:52.025Z,1.42
2022-11-19T00:41:19.670Z,1.50
2022-11-19T00:43:52.390Z,1.48
2022-11-19T00:46:21.667Z,1.53
2022-11-19T00:48:50.053Z,1.56
2022-11-19T00:51:18.142Z,1.55
2022-11-19T00:53:45.458Z,1.47
2022-11-19T00:56:15.165Z,1.33
2022-11-19T00:58:42.862Z,1.25
2022-11-19T01:01:10.623Z,1.42
2022-11-19T01:03:38.653Z,1.34
2022-11-19T01:06:06.567Z,1.33
2022-11-19T01:08:33.359Z,1.26
2022-11-19T01:11:14.623Z,1.29
2022-11-19T01:13:41.750Z,1.29
2022-11-19T01:16:26.466Z,1.30
2022-11-19T01:18:54.153Z,1.28
2022-11-19T01:21:23.167Z,1.17
2022-11-19T01:23:50.276Z,1.45
2022-11-19T01:26:18.491Z,1.42
2022-11-19T01:28:45.846Z,1.42
2022-11-19T01:31:25.142Z,1.24
2022-11-19T01:33:52.254Z,1.03
2022-11-19T01:36:20.265Z,1.20
2022-11-19T01:38:51.061Z,1.20
2022-11-19T01:41:32.186Z,1.14
2022-11-19T01:44:02.017Z,1.42
2022-11-19T01:46:34.791Z,1.32
2022-11-19T01:49:04.136Z,1.22
2022-11-19T01:51:55.790Z,0.84
2022-11-19T01:54:30.064Z,0.85
2022-11-19T01:57:01.697Z,1.13
2022-11-19T01:59:30.944Z,1.18
2022-11-19T02:01:57.836Z,1.36
2022-11-19T02:04:26.501Z,1.29
2022-11-19T02:06:55.091Z,1.33
2022-11-19T02:09:22.412Z,1.26
2022-11-19T02:12:11.746Z,1.30
2022-11-19T02:15:00.059Z,1.32
2022-11-19T02:17:38.492Z,1.42
2022-11-19T02:20:07.813Z,1.41
2022-11-19T02:22:46.402Z,1.42
2022-11-19T02:25:38.951Z,1.27
2022-11-19T02:28:23.974Z,1.50
2022-11-19T02:30:53.964Z,1.59
2022-11-19T02:33:35.842Z,1.77
2022-11-19T02:36:07.192Z,1.50
2022-11-19T02:39:08.972Z,1.75
2022-11-19T02:41:42.837Z,1.72
2022-11-19T02:44:42.720Z,1.75
2022-11-19T02:47:23.774Z,1.83
2022-11-19T02:49:54.908Z,1.96
2022-11-19T02:52:22.082Z,2.08
2022-11-19T02:54:48.687Z,2.13
2022-11-19T02:57:15.386Z,2.18
2022-11-19T03:00:22.156Z,2.01
2022-11-19T03:03:14.089Z,2.05
2022-11-19T03:05:47.196Z,1.60
2022-11-19T03:08:14.051Z,1.68
2022-11-19T03:10:52.456Z,2.10
2022-11-19T03:13:45.016Z,2.08
2022-11-19T03:16:38.909Z,2.14
2022-11-19T03:19:15.521Z,2.02
2022-11-19T03:21:56.606Z,2.06
2022-11-19T03:24:35.240Z,2.16
2022-11-19T03:27:13.943Z,2.35
2022-11-19T03:29:45.339Z,2.33
2022-11-19T03:32:18.166Z,2.35
2022-11-19T03:34:48.318Z,2.33
2022-11-19T03:37:17.442Z,2.48
2022-11-19T03:39:46.544Z,2.39
2022-11-19T03:42:16.020Z,2.54
2022-11-19T03:44:47.869Z,2.56
2022-11-19T03:47:36.819Z,2.54
2022-11-19T03:50:27.537Z,2.63
2022-11-19T03:52:57.755Z,2.60
2022-11-19T03:55:38.034Z,2.56
2022-11-19T03:58:07.748Z,2.68
2022-11-19T04:00:34.479Z,2.19
2022-11-19T04:03:01.308Z,2.19
2022-11-19T04:05:27.945Z,2.29
2022-11-19T04:07:54.605Z,2.29
2022-11-19T04:10:21.221Z,2.70
2022-11-19T04:12:47.912Z,2.80
2022-11-19T04:15:15.097Z,2.87
2022-11-19T04:17:41.974Z,2.72
2022-11-19T04:20:09.170Z,2.63
2022-11-19T04:22:35.742Z,2.51
2022-11-19T04:25:02.370Z,2.56
2022-11-19T04:27:29.056Z,2.79
2022-11-19T04:29:55.952Z,2.86
2022-11-19T04:32:22.623Z,2.79
2022-11-19T04:34:49.548Z,2.73
2022-11-19T04:37:16.115Z,2.70
2022-11-19T04:39:42.707Z,2.45
2022-11-19T04:42:09.415Z,2.30
2022-11-19T04:44:36.305Z,2.12
2022-11-19T04:47:03.097Z,2.34
2022-11-19T04:49:29.797Z,2.30
2022-11-19T04:51:56.438Z,1.79
2022-11-19T04:54:23.090Z,2.13
2022-11-19T04:56:49.726Z,2.13
2022-11-19T04:59:16.519Z,2.16
2022-11-19T05:01:43.423Z,2.14
2022-11-19T05:04:10.300Z,2.38
2022-11-19T05:06:36.886Z,2.36
2022-11-19T05:09:03.593Z,2.38
2022-11-19T05:11:30.437Z,2.47
2022-11-19T05:13:57.198Z,2.64
2022-11-19T05:16:23.791Z,2.40
2022-11-19T05:18:50.425Z,2.42
2022-11-19T05:21:16.994Z,2.46
2022-11-19T05:23:43.596Z,2.47
2022-11-19T05:26:10.292Z,2.39
2022-11-19T05:28:39.724Z,2.50
2022-11-19T05:31:07.569Z,1.97
2022-11-19T05:33:34.740Z,2.01
2022-11-19T05:36:02.050Z,1.94
2022-11-19T05:38:28.731Z,1.89
2022-11-19T05:40:55.477Z,1.81
2022-11-19T05:43:22.349Z,1.95
2022-11-19T05:45:48.980Z,2.08
2022-11-19T05:48:15.772Z,2.19
2022-11-19T05:50:42.898Z,2.21
2022-11-19T05:53:10.116Z,2.25
2022-11-19T05:55:36.742Z,2.34
2022-11-19T05:58:03.588Z,2.35
2022-11-19T06:00:30.223Z,2.22
2022-11-19T06:02:56.954Z,2.49
2022-11-19T06:05:23.619Z,2.25
2022-11-19T06:07:50.239Z,2.35
2022-11-19T06:10:16.970Z,2.39
2022-11-19T06:12:46.668Z,2.59
2022-11-19T06:15:14.577Z,2.39
2022-11-19T06:17:41.499Z,2.49
2022-11-19T06:20:10.949Z,2.41
2022-11-19T06:22:38.301Z,2.36
2022-11-19T06:25:06.334Z,2.64
2022-11-19T06:27:33.405Z,2.67
2022-11-19T06:30:00.099Z,2.63
2022-11-19T06:32:26.957Z,2.81
2022-11-19T06:34:53.616Z,2.96
2022-11-19T06:37:20.329Z,2.86
2022-11-19T06:39:47.012Z,2.80
2022-11-19T06:42:32.250Z,2.73
2022-11-19T06:44:58.972Z,2.66
2022-11-19T06:47:25.581Z,2.76
2022-11-19T06:49:52.302Z,2.86
2022-11-19T06:52:19.219Z,2.85
2022-11-19T06:54:45.863Z,2.96
2022-11-19T06:57:12.497Z,2.83
2022-11-19T06:59:39.261Z,2.85
2022-11-19T07:02:07.586Z,2.85
2022-11-19T07:04:34.307Z,2.93
2022-11-19T07:07:01.292Z,3.09
2022-11-19T07:09:27.985Z,3.06
2022-11-19T07:11:54.555Z,3.05
2022-11-19T07:14:21.272Z,3.41
2022-11-19T07:16:48.022Z,3.39
2022-11-19T07:19:14.673Z,3.38
2022-11-19T07:21:41.638Z,3.35
2022-11-19T07:24:10.102Z,3.56
2022-11-19T07:26:37.823Z,3.58
2022-11-19T07:29:06.510Z,3.44
2022-11-19T07:31:33.800Z,3.68
2022-11-19T07:34:01.138Z,3.61
2022-11-19T07:36:27.979Z,3.52
2022-11-19T07:38:54.764Z,3.52
2022-11-19T07:41:40.141Z,3.63
2022-11-19T07:44:07.112Z,3.75
2022-11-19T07:46:34.085Z,3.50
2022-11-19T07:49:01.032Z,3.49
2022-11-19T07:51:27.686Z,3.44
2022-11-19T07:53:55.760Z,3.42
2022-11-19T07:56:22.934Z,3.26
2022-11-19T07:58:49.662Z,3.21
2022-11-19T08:01:19.724Z,3.70
2022-11-19T08:03:51.825Z,3.68
2022-11-19T08:06:22.412Z,3.78
2022-11-19T08:09:08.959Z,3.70
2022-11-19T08:11:35.704Z,3.77
2022-11-19T08:14:02.472Z,4.09
2022-11-19T08:16:48.145Z,4.05
2022-11-19T08:19:16.408Z,4.39
2022-11-19T08:21:45.889Z,4.53
2022-11-19T08:24:14.479Z,4.40
2022-11-19T08:26:41.387Z,4.38
2022-11-19T08:29:14.720Z,4.39
2022-11-19T08:31:44.943Z,4.55
2022-11-19T08:34:11.898Z,4.72
2022-11-19T08:36:38.757Z,4.74
2022-11-19T08:39:06.634Z,4.80
2022-11-19T08:41:52.192Z,4.98
2022-11-19T08:44:19.337Z,4.87
2022-11-19T08:46:46.266Z,4.67
2022-11-19T08:49:13.222Z,4.87
2022-11-19T08:51:40.245Z,4.86
2022-11-19T08:54:06.850Z,4.76
2022-11-19T08:56:33.473Z,4.75
2022-11-19T08:59:03.044Z,4.83
2022-11-19T09:01:30.765Z,4.86
2022-11-19T09:03:58.214Z,4.85
2022-11-19T09:06:27.740Z,4.89
2022-11-19T09:08:54.375Z,4.77
2022-11-19T09:11:22.490Z,4.91
2022-11-19T09:13:49.193Z,4.94
2022-11-19T09:16:16.566Z,5.00
2022-11-19T09:18:43.521Z,5.03
2022-11-19T09:21:11.331Z,4.88
2022-11-19T09:23:38.426Z,5.18
2022-11-19T09:26:08.014Z,5.21
2022-11-19T09:28:34.877Z,5.30
2022-11-19T09:31:08.219Z,5.29
2022-11-19T09:33:37.536Z,5.41
2022-11-19T09:36:04.702Z,5.51
2022-11-19T09:38:37.276Z,5.60
2022-11-19T09:41:32.210Z,5.55
2022-11-19T09:44:17.740Z,5.90
2022-11-19T09:47:12.526Z,5.76
2022-11-19T09:50:14.374Z,5.94
2022-11-19T09:52:46.781Z,5.82
2022-11-19T09:55:19.554Z,5.67
2022-11-19T09:57:53.829Z,5.75
2022-11-19T10:00:23.817Z,5.48
2022-11-19T10:02:50.719Z,5.37
2022-11-19T10:05:43.731Z,5.27
2022-11-19T10:08:13.427Z,5.18
2022-11-19T10:10:53.163Z,5.26
2022-11-19T10:13:35.488Z,5.50
2022-11-19T10:16:10.921Z,5.66
2022-11-19T10:18:54.051Z,5.75
2022-11-19T10:21:33.708Z,5.89
2022-11-19T10:24:25.189Z,6.10
2022-11-19T10:27:05.767Z,6.07
2022-11-19T10:29:39.019Z,6.14
2022-11-19T10:32:52.172Z,6.25
2022-11-19T10:35:25.237Z,6.34
2022-11-19T10:37:59.607Z,6.43
2022-11-19T10:40:35.102Z,6.60
2022-11-19T10:43:23.564Z,6.64
2022-11-19T10:45:50.627Z,7.02
2022-11-19T10:48:23.312Z,6.84
2022-11-19T10:50:51.346Z,6.81
2022-11-19T10:53:29.255Z,7.08
2022-11-19T10:56:03.127Z,7.13
2022-11-19T10:58:39.580Z,7.02
2022-11-19T11:01:31.356Z,6.86
2022-11-19T11:04:15.310Z,7.42
2022-11-19T11:07:03.922Z,7.36
2022-11-19T11:09:34.952Z,7.80
2022-11-19T11:12:32.702Z,7.28
2022-11-19T11:15:12.661Z,7.59
2022-11-19T11:17:42.450Z,8.06
2022-11-19T11:20:18.122Z,8.20
2022-11-19T11:22:48.330Z,7.89
2022-11-19T11:25:27.531Z,7.71
2022-11-19T11:28:18.523Z,8.07
2022-11-19T11:31:10.767Z,8.04
2022-11-19T11:33:42.756Z,7.89
2022-11-19T11:36:14.235Z,7.75
2022-11-19T11:38:47.326Z,7.50
2022-11-19T11:44:08.510Z,7.64
2022-11-19T11:46:44.445Z,7.69
2022-11-19T11:49:30.077Z,8.00
2022-11-19T11:52:08.590Z,7.69
2022-11-19T11:54:36.760Z,7.58
2022-11-19T11:57:23.192Z,7.75
2022-11-19T11:59:49.763Z,7.62
2022-11-19T12:02:23.312Z,7.97
2022-11-19T12:04:51.625Z,7.89
2022-11-19T12:07:41.840Z,8.67
2022-11-19T12:10:26.895Z,8.79
2022-11-19T12:13:12.054Z,9.82
2022-11-19T12:16:00.135Z,10.30
2022-11-19T12:18:39.118Z,10.84
2022-11-19T12:21:34.928Z,11.42
2022-11-19T12:24:32.664Z,10.95
2022-11-19T12:27:08.172Z,11.46
2022-11-19T12:29:56.625Z,11.00
2022-11-19T12:32:51.364Z,11.31
2022-11-19T12:35:23.761Z,11.95
2022-11-19T12:37:50.349Z,11.91
2022-11-19T12:40:40.843Z,11.53
2022-11-19T12:43:40.421Z,13.20
2022-11-19T12:46:34.404Z,13.16
2022-11-19T12:49:23.454Z,12.23
2022-11-19T12:52:16.904Z,13.82
2022-11-19T12:54:58.732Z,14.71
2022-11-19T12:57:31.441Z,11.32
2022-11-19T13:00:23.782Z,10.72
2022-11-19T13:02:53.284Z,12.97
2022-11-19T13:05:42.905Z,14.59
2022-11-19T13:08:24.498Z,14.10
2022-11-19T13:11:13.132Z,14.41
2022-11-19T13:13:52.452Z,16.53
2022-11-19T13:16:21.971Z,16.23
2022-11-19T13:18:52.722Z,16.53
2022-11-19T13:21:44.424Z,17.63
2022-11-19T13:24:36.745Z,19.31
2022-11-19T13:27:06.338Z,19.03
2022-11-19T13:29:54.861Z,17.34
2022-11-19T13:32:24.298Z,15.63
2022-11-19T13:35:06.021Z,12.01
2022-11-19T13:37:58.454Z,9.81
2022-11-19T13:40:37.148Z,8.40
2022-11-19T13:43:32.029Z,11.82
2022-11-19T13:46:08.346Z,16.08
2022-11-19T13:48:41.402Z,14.65
2022-11-19T13:51:27.081Z,14.40
2022-11-19T13:54:02.334Z,9.84
2022-11-19T13:56:49.144Z,8.78
2022-11-19T13:59:24.829Z,8.27
2022-11-19T14:02:04.244Z,8.09
2022-11-19T14:05:05.883Z,8.79
2022-11-19T14:07:51.189Z,7.87
2022-11-19T14:10:26.925Z,7.82
2022-11-19T14:12:59.251Z,8.03
2022-11-19T14:15:59.789Z,8.16
2022-11-19T14:18:53.089Z,8.62
2022-11-19T14:21:42.716Z,8.78
2022-11-19T14:24:44.956Z,8.79
2022-11-19T14:27:21.603Z,8.40
2022-11-19T14:29:48.300Z,8.94
2022-11-19T14:32:14.920Z,8.35
2022-11-19T14:35:13.856Z,8.31
2022-11-19T14:37:45.477Z,8.00
2022-11-19T14:40:17.249Z,8.34
2022-11-19T14:43:20.772Z,8.28
2022-11-19T14:46:06.311Z,8.10
2022-11-19T14:48:38.845Z,8.05
2022-11-19T14:51:11.358Z,7.81
2022-11-19T14:53:49.453Z,7.88
2022-11-19T14:56:19.850Z,7.69
2022-11-19T14:59:15.711Z,7.65
2022-11-19T15:02:23.952Z,7.32
2022-11-19T15:04:56.834Z,7.37
2022-11-19T15:07:42.189Z,7.12
2022-11-19T15:10:11.049Z,6.92
2022-11-19T15:12:43.889Z,7.06
2022-11-19T15:15:19.493Z,6.71
2022-11-19T15:18:27.964Z,6.55
2022-11-19T15:21:21.379Z,6.43
2022-11-19T15:24:07.657Z,6.69
2022-11-19T15:27:12.041Z,6.59
2022-11-19T15:30:01.928Z,6.49
2022-11-19T15:32:37.803Z,6.36
2022-11-19T15:35:20.092Z,6.56
2022-11-19T15:37:52.530Z,6.42
2022-11-19T15:40:22.899Z,6.23
2022-11-19T15:42:56.942Z,6.09
2022-11-19T15:45:25.736Z,5.99
2022-11-19T15:48:10.524Z,5.82
2022-11-19T15:50:37.615Z,5.84
2022-11-19T15:53:24.263Z,5.89
2022-11-19T15:56:05.254Z,5.78
2022-11-19T15:58:42.634Z,5.81
2022-11-19T16:01:14.145Z,5.57
2022-11-19T16:03:41.326Z,5.72
2022-11-19T16:06:19.552Z,5.63
2022-11-19T16:08:51.074Z,5.48
2022-11-19T16:11:37.028Z,5.58
2022-11-19T16:14:22.288Z,5.47
2022-11-19T16:17:10.471Z,5.43
2022-11-19T16:19:37.168Z,5.28
2022-11-19T16:22:05.108Z,5.37
2022-11-19T16:24:50.659Z,5.27
2022-11-19T16:27:25.378Z,5.34
2022-11-19T16:29:52.510Z,5.16
2022-11-19T16:32:21.833Z,5.14
2022-11-19T16:34:48.700Z,5.04
2022-11-19T16:37:21.537Z,4.99
2022-11-19T16:39:52.328Z,4.99
2022-11-19T16:42:28.256Z,4.88
2022-11-19T16:45:17.031Z,4.61
2022-11-19T16:47:53.083Z,4.75
2022-11-19T16:50:26.988Z,4.79
2022-11-19T16:52:55.281Z,4.76
2022-11-19T16:55:24.893Z,4.63
2022-11-19T16:57:58.137Z,4.36
2022-11-19T17:00:36.874Z,4.54
2022-11-19T17:03:24.452Z,4.51
2022-11-19T17:05:53.083Z,4.45
2022-11-19T17:08:23.621Z,4.38
2022-11-19T17:11:10.245Z,4.38
2022-11-19T17:13:37.384Z,4.44
2022-11-19T17:16:22.611Z,4.42
2022-11-19T17:18:50.182Z,4.22
2022-11-19T17:21:27.419Z,4.65
2022-11-19T17:23:54.376Z,4.58
2022-11-19T17:26:26.601Z,4.72
2022-11-19T17:29:11.846Z,4.51
2022-11-19T17:31:49.934Z,4.25
2022-11-19T17:34:31.150Z,4.38
2022-11-19T17:36:58.159Z,4.23
2022-11-19T17:39:25.836Z,4.60
2022-11-19T17:42:13.605Z,4.69
2022-11-19T17:44:41.047Z,4.65
2022-11-19T17:47:21.640Z,4.38
2022-11-19T17:49:49.560Z,4.41
2022-11-19T17:52:25.229Z,4.33
2022-11-19T17:54:53.719Z,4.36
2022-11-19T17:57:20.417Z,4.17
2022-11-19T17:59:47.083Z,4.39
2022-11-19T18:02:18.684Z,4.56
2022-11-19T18:04:46.582Z,3.95
2022-11-19T18:07:14.290Z,4.31
2022-11-19T18:09:41.457Z,4.21
2022-11-19T18:12:13.906Z,4.23
2022-11-19T18:14:40.493Z,4.34
2022-11-19T18:17:10.901Z,4.29
2022-11-19T18:19:37.625Z,4.49
2022-11-19T18:22:04.432Z,4.33
2022-11-19T18:24:31.082Z,4.52
2022-11-19T18:26:57.664Z,4.47
2022-11-19T18:29:24.723Z,4.41
2022-11-19T18:31:52.081Z,4.33
2022-11-19T18:34:23.759Z,4.40
2022-11-19T18:36:50.730Z,4.37
2022-11-19T18:39:17.357Z,4.36
2022-11-19T18:41:44.031Z,4.52
2022-11-19T18:44:45.486Z,4.49
2022-11-19T18:47:15.156Z,4.37
2022-11-19T18:49:41.778Z,4.33
2022-11-19T18:52:11.866Z,4.38
2022-11-19T18:54:38.685Z,4.33
2022-11-19T18:57:05.343Z,4.40
2022-11-19T18:59:32.026Z,4.52
2022-11-19T19:01:58.848Z,4.44
2022-11-19T19:04:25.546Z,4.50
2022-11-19T19:06:52.589Z,4.47
2022-11-19T19:09:20.355Z,4.57
2022-11-19T19:12:13.607Z,4.55
2022-11-19T19:14:42.085Z,4.48
2022-11-19T19:17:09.054Z,4.64
2022-11-19T19:19:35.930Z,4.50
2022-11-19T19:22:02.655Z,4.43
2022-11-19T19:24:29.409Z,4.40
2022-11-19T19:26:56.048Z,4.53
2022-11-19T19:29:22.982Z,4.59
2022-11-19T19:31:49.995Z,4.50
2022-11-19T19:34:17.017Z,4.56
2022-11-19T19:36:46.459Z,4.69
2022-11-19T19:39:16.948Z,4.36
2022-11-19T19:41:43.750Z,4.55
2022-11-19T19:44:10.981Z,4.20
2022-11-19T19:46:37.652Z,4.36
2022-11-19T19:49:04.433Z,4.46
2022-11-19T19:51:32.586Z,4.32
2022-11-19T19:54:00.090Z,4.20
2022-11-19T19:56:31.538Z,4.42
2022-11-19T19:58:59.647Z,4.20
2022-11-19T20:01:29.229Z,4.09
2022-11-19T20:04:03.114Z,4.08
2022-11-19T20:06:30.309Z,4.10
2022-11-19T20:08:56.918Z,3.60
2022-11-19T20:11:24.807Z,3.70
2022-11-19T20:13:53.245Z,3.78
2022-11-19T20:16:25.953Z,3.68
2022-11-19T20:18:53.352Z,3.80
2022-11-19T20:21:25.033Z,3.78
2022-11-19T20:23:52.529Z,3.80
2022-11-19T20:26:24.566Z,3.90
2022-11-19T20:29:11.906Z,3.86
2022-11-19T20:31:38.789Z,3.76
2022-11-19T20:34:05.689Z,3.54
2022-11-19T20:36:36.289Z,3.61
2022-11-19T20:39:04.872Z,3.62
2022-11-19T20:41:50.204Z,3.56
2022-11-19T20:44:22.392Z,3.46
2022-11-19T20:47:00.608Z,3.32
2022-11-19T20:49:32.617Z,3.49
2022-11-19T20:51:59.540Z,3.47
2022-11-19T20:54:27.284Z,3.52
2022-11-19T20:56:55.906Z,3.38
2022-11-19T20:59:25.743Z,3.38
2022-11-19T21:01:54.228Z,3.26
2022-11-19T21:04:21.523Z,3.26
2022-11-19T21:06:49.919Z,3.48
2022-11-19T21:09:16.966Z,3.23
2022-11-19T21:11:43.837Z,3.23
2022-11-19T21:14:10.842Z,3.18
2022-11-19T21:16:37.519Z,3.28
2022-11-19T21:19:04.639Z,3.34
2022-11-19T21:21:31.318Z,3.15
2022-11-19T21:23:58.103Z,3.06
2022-11-19T21:26:27.213Z,3.12
2022-11-19T21:28:58.607Z,3.09
2022-11-19T21:31:38.675Z,3.06
2022-11-19T21:34:14.431Z,3.07
2022-11-19T21:36:42.560Z,3.26
2022-11-19T21:39:11.153Z,3.23
2022-11-19T21:41:38.182Z,3.27
2022-11-19T21:44:05.232Z,3.14
2022-11-19T21:46:32.315Z,3.27
2022-11-19T21:48:59.232Z,3.21
2022-11-19T21:51:25.840Z,3.34
2022-11-19T21:53:57.131Z,3.48
2022-11-19T21:56:24.263Z,3.52
2022-11-19T21:58:50.995Z,3.28
2022-11-19T22:01:17.828Z,3.29
2022-11-19T22:03:44.520Z,3.34
2022-11-19T22:06:11.937Z,3.03
2022-11-19T22:08:40.961Z,3.36
2022-11-19T22:11:27.289Z,3.41
2022-11-19T22:13:55.075Z,3.43
2022-11-19T22:16:22.018Z,3.40
2022-11-19T22:18:48.830Z,3.30
2022-11-19T22:21:15.749Z,3.31
2022-11-19T22:23:42.461Z,3.21
2022-11-19T22:26:11.232Z,3.28
2022-11-19T22:28:38.603Z,3.23
2022-11-19T22:31:05.857Z,3.08
2022-11-19T22:33:34.649Z,2.88
2022-11-19T22:36:09.242Z,3.13
2022-11-19T22:38:36.949Z,3.09
2022-11-19T22:41:12.530Z,3.15
2022-11-19T22:43:40.407Z,3.18
2022-11-19T22:46:08.960Z,3.15
2022-11-19T22:48:36.439Z,2.90
2022-11-19T22:51:09.480Z,3.25
2022-11-19T22:53:36.678Z,3.24
2022-11-19T22:56:05.302Z,3.30
2022-11-19T22:58:32.492Z,3.19
2022-11-19T23:00:59.501Z,3.12
2022-11-19T23:03:26.171Z,3.09
2022-11-19T23:05:54.213Z,3.17
2022-11-19T23:08:21.669Z,3.08
2022-11-19T23:10:48.740Z,3.10
2022-11-19T23:13:31.493Z,2.92
2022-11-19T23:16:11.962Z,3.01
2022-11-19T23:18:50.264Z,3.04
2022-11-19T23:21:22.013Z,3.18
2022-11-19T23:23:49.498Z,3.18
2022-11-19T23:26:19.114Z,3.01
2022-11-19T23:28:47.295Z,2.85
2022-11-19T23:31:15.817Z,2.87
2022-11-19T23:33:43.301Z,2.79
2022-11-19T23:36:15.625Z,2.80
2022-11-19T23:38:43.246Z,3.02
2022-11-19T23:41:13.978Z,3.05
2022-11-19T23:43:41.861Z,2.93
2022-11-19T23:46:15.819Z,2.94
2022-11-19T23:48:44.041Z,3.02
2022-11-19T23:51:13.890Z,3.15
2022-11-19T23:53:40.820Z,3.23
2022-11-19T23:56:08.721Z,3.39
2022-11-19T23:58:35.980Z,3.47
